createdAt,value
2019-02-28T00:02:25.193Z,137.88
2019-02-28T00:04:52.222Z,136.60
2019-02-28T00:07:19.356Z,136.95
2019-02-28T00:09:46.483Z,137.28
2019-02-28T00:12:14.419Z,137.60
2019-02-28T00:14:42.024Z,138.92
2019-02-28T00:17:09.850Z,137.43
2019-02-28T00:19:37.039Z,137.70
2019-02-28T00:22:04.913Z,136.77
2019-02-28T00:24:34.586Z,138.77
2019-02-28T00:27:01.621Z,138.50
2019-02-28T00:29:33.699Z,138.32
2019-02-28T00:32:01.045Z,142.45
2019-02-28T00:34:28.256Z,141.85
2019-02-28T00:36:55.282Z,140.50
2019-02-28T00:39:22.531Z,143.43
2019-02-28T00:41:50.246Z,142.72
2019-02-28T00:44:18.372Z,141.97
2019-02-28T00:46:45.553Z,141.43
2019-02-28T00:49:12.885Z,139.97
2019-02-28T00:51:40.543Z,140.37
2019-02-28T00:54:08.536Z,141.12
2019-02-28T00:56:36.883Z,141.82
2019-02-28T00:59:03.890Z,140.15
2019-02-28T01:01:30.973Z,142.95
2019-02-28T01:03:59.127Z,141.97
2019-02-28T01:06:26.396Z,141.53
2019-02-28T01:08:56.054Z,143.32
2019-02-28T01:11:23.300Z,142.85
2019-02-28T01:13:50.744Z,144.45
2019-02-28T01:16:19.408Z,143.32
2019-02-28T01:18:46.753Z,142.55
2019-02-28T01:21:14.135Z,143.28
2019-02-28T01:23:41.178Z,144.10
2019-02-28T01:26:08.220Z,142.50
2019-02-28T01:28:35.269Z,144.17
2019-02-28T01:31:02.592Z,142.07
2019-02-28T01:33:29.659Z,142.35
2019-02-28T01:35:57.026Z,143.50
2019-02-28T01:38:25.303Z,141.60
2019-02-28T01:41:08.388Z,140.92
2019-02-28T01:44:35.494Z,141.47
2019-02-28T01:47:14.029Z,140.95
2019-02-28T01:54:19.523Z,141.18
2019-02-28T02:00:16.047Z,142.22
2019-02-28T02:03:46.072Z,143.02
2019-02-28T02:06:42.632Z,140.10
2019-02-28T02:09:46.261Z,139.57
2019-02-28T02:16:07.762Z,140.32
2019-02-28T02:19:18.506Z,140.45
2019-02-28T02:22:09.178Z,140.80
2019-02-28T02:24:46.437Z,140.07
2019-02-28T02:27:39.883Z,140.05
2019-02-28T02:30:27.139Z,140.37
2019-02-28T02:33:22.314Z,141.55
2019-02-28T02:36:10.934Z,140.20
2019-02-28T02:38:51.879Z,141.28
2019-02-28T02:41:33.809Z,141.65
2019-02-28T02:44:32.820Z,140.07
2019-02-28T02:47:44.851Z,140.75
2019-02-28T02:50:30.237Z,139.90
2019-02-28T02:53:26.306Z,139.47
2019-02-28T02:59:23.884Z,139.95
2019-02-28T03:02:06.644Z,139.57
2019-02-28T03:05:01.293Z,140.47
2019-02-28T03:07:40.294Z,141.62
2019-02-28T03:10:19.998Z,141.65
2019-02-28T03:13:12.439Z,141.12
2019-02-28T03:16:02.891Z,139.65
2019-02-28T03:18:56.879Z,140.03
2019-02-28T03:21:35.628Z,142.07
2019-02-28T03:24:20.203Z,142.82
2019-02-28T03:27:20.138Z,142.35
2019-02-28T03:30:02.894Z,142.85
2019-02-28T03:32:48.911Z,143.87
2019-02-28T03:35:40.581Z,142.55
2019-02-28T03:38:12.767Z,141.55
2019-02-28T03:41:06.987Z,140.90
2019-02-28T03:43:55.931Z,141.32
2019-02-28T03:46:39.096Z,140.60
2019-02-28T03:49:30.608Z,141.55
2019-02-28T03:52:16.691Z,140.95
2019-02-28T03:55:23.108Z,141.40
2019-02-28T03:58:18.088Z,140.90
2019-02-28T04:01:14.058Z,140.57
2019-02-28T04:03:53.687Z,142.57
2019-02-28T04:06:39.749Z,141.82
2019-02-28T04:09:27.233Z,140.28
2019-02-28T04:12:26.013Z,141.28
2019-02-28T04:15:10.164Z,140.52
2019-02-28T04:17:48.909Z,140.30
2019-02-28T04:20:47.448Z,142.40
2019-02-28T04:27:21.193Z,140.12
2019-02-28T04:30:45.796Z,141.30
2019-02-28T04:33:37.673Z,140.52
2019-02-28T04:36:20.498Z,142.68
2019-02-28T04:39:04.476Z,142.07
2019-02-28T04:41:53.962Z,141.88
2019-02-28T04:44:52.958Z,141.35
2019-02-28T04:47:40.532Z,142.55
2019-02-28T04:50:21.495Z,140.50
2019-02-28T04:53:52.916Z,141.53
2019-02-28T04:56:47.129Z,139.72
2019-02-28T04:59:45.285Z,140.90
2019-02-28T05:03:06.980Z,141.15
2019-02-28T05:07:05.862Z,141.35
2019-02-28T05:14:24.344Z,140.43
2019-02-28T05:19:56.275Z,140.82
2019-02-28T05:25:21.725Z,141.73
2019-02-28T05:28:28.653Z,140.43
2019-02-28T05:31:14.235Z,141.57
2019-02-28T05:34:37.306Z,141.40
2019-02-28T05:37:43.813Z,140.43
2019-02-28T05:40:41.388Z,139.82
2019-02-28T05:44:07.247Z,141.15
2019-02-28T05:46:43.869Z,141.15
2019-02-28T05:49:28.440Z,139.45
2019-02-28T05:52:08.890Z,141.22
2019-02-28T05:54:42.408Z,141.97
2019-02-28T05:57:56.951Z,142.60
2019-02-28T06:01:02.708Z,143.45
2019-02-28T06:03:38.846Z,143.43
2019-02-28T06:15:21.259Z,143.32
2019-02-28T06:18:27.053Z,142.62
2019-02-28T06:21:07.789Z,142.93
2019-02-28T06:23:44.769Z,143.10
2019-02-28T06:26:18.425Z,144.00
2019-02-28T06:28:58.010Z,144.10
2019-02-28T06:31:34.304Z,145.05
2019-02-28T06:34:33.368Z,143.32
2019-02-28T06:40:55.569Z,143.07
2019-02-28T07:02:41.117Z,143.95
2019-02-28T07:09:43.894Z,145.85
2019-02-28T07:13:46.067Z,147.10
2019-02-28T07:17:59.357Z,147.45
2019-02-28T07:32:36.679Z,148.25
2019-02-28T07:35:18.870Z,149.12
2019-02-28T07:38:15.745Z,148.35
2019-02-28T07:47:37.288Z,149.38
2019-02-28T07:50:23.610Z,149.42
2019-02-28T07:53:34.238Z,151.22
2019-02-28T07:59:21.810Z,151.60
2019-02-28T08:02:23.291Z,152.25
2019-02-28T08:04:58.733Z,149.95
2019-02-28T08:11:21.350Z,151.63
2019-02-28T08:14:04.629Z,152.07
2019-02-28T08:20:44.963Z,154.07
2019-02-28T08:23:29.841Z,152.85
2019-02-28T08:26:28.135Z,152.20
2019-02-28T08:29:19.461Z,153.05
2019-02-28T08:32:17.232Z,152.53
2019-02-28T08:38:25.237Z,153.15
2019-02-28T08:41:29.236Z,166.22
2019-02-28T08:44:03.384Z,155.95
2019-02-28T08:46:46.376Z,155.18
2019-02-28T08:49:31.304Z,154.57
2019-02-28T08:52:14.896Z,162.18
2019-02-28T08:58:26.723Z,155.32
2019-02-28T09:05:16.965Z,155.18
2019-02-28T09:08:01.055Z,158.52
2019-02-28T09:10:37.431Z,158.15
2019-02-28T09:16:55.214Z,158.00
2019-02-28T09:20:12.665Z,159.57
2019-02-28T09:22:53.078Z,160.03
2019-02-28T09:26:14.557Z,160.50
2019-02-28T09:29:12.913Z,160.37
2019-02-28T09:31:58.620Z,159.63
2019-02-28T09:34:38.002Z,159.07
2019-02-28T09:37:20.223Z,159.48
2019-02-28T09:40:50.737Z,160.07
2019-02-28T09:43:39.182Z,160.22
2019-02-28T09:46:47.525Z,160.30
2019-02-28T09:49:44.284Z,158.57
2019-02-28T09:52:25.662Z,160.82
2019-02-28T09:58:38.779Z,161.82
2019-02-28T10:01:16.277Z,160.93
2019-02-28T10:04:10.329Z,161.47
2019-02-28T10:06:51.483Z,165.97
2019-02-28T10:09:40.585Z,164.07
2019-02-28T10:20:16.992Z,162.97
2019-02-28T10:22:58.356Z,168.35
2019-02-28T10:25:57.041Z,166.90
2019-02-28T10:29:07.434Z,168.28
2019-02-28T10:35:52.719Z,168.35
2019-02-28T10:45:47.867Z,169.30
2019-02-28T10:49:21.076Z,169.77
2019-02-28T10:58:38.782Z,167.50
2019-02-28T11:02:20.434Z,167.25
2019-02-28T11:06:21.733Z,166.65
2019-02-28T11:09:04.478Z,165.95
2019-02-28T12:01:31.208Z,167.77
2019-02-28T12:04:57.007Z,167.00
2019-02-28T12:11:21.387Z,164.65
2019-02-28T12:14:45.842Z,168.57
2019-02-28T12:21:04.933Z,169.37
2019-02-28T12:24:32.378Z,168.87
2019-02-28T14:59:50.487Z,165.55
2019-02-28T15:23:51.243Z,157.57
2019-02-28T16:33:44.262Z,151.93
2019-02-28T16:36:46.027Z,151.02
2019-02-28T16:39:33.567Z,150.05
2019-02-28T16:42:12.492Z,154.23
2019-02-28T16:45:02.603Z,155.07
2019-02-28T16:48:03.026Z,154.30
2019-02-28T16:51:03.673Z,158.45
2019-02-28T17:02:45.502Z,153.20
2019-02-28T17:14:02.455Z,150.50
2019-02-28T17:16:38.164Z,148.97
2019-02-28T17:19:08.514Z,148.53
2019-02-28T17:21:52.092Z,146.22
2019-02-28T17:24:17.675Z,145.02
2019-02-28T17:27:10.520Z,147.17
2019-02-28T17:29:48.283Z,147.70
2019-02-28T17:32:15.652Z,145.97
2019-02-28T17:34:42.793Z,146.93
2019-02-28T17:37:10.016Z,146.13
2019-02-28T17:39:37.131Z,146.15
2019-02-28T17:42:08.538Z,154.93
2019-02-28T17:45:04.244Z,145.05
2019-02-28T17:48:21.961Z,144.80
2019-02-28T17:51:09.470Z,143.07
2019-02-28T17:54:31.750Z,141.12
2019-02-28T17:57:28.277Z,142.80
2019-02-28T18:00:23.787Z,142.07
2019-02-28T18:03:12.977Z,142.80
2019-02-28T18:06:47.215Z,142.32
2019-02-28T18:09:50.412Z,142.15
2019-02-28T18:13:10.261Z,141.03
2019-02-28T18:16:21.506Z,142.75
2019-02-28T18:19:41.791Z,142.90
2019-02-28T18:22:56.605Z,141.30
2019-02-28T18:25:52.336Z,141.20
2019-02-28T18:28:58.844Z,143.32
2019-02-28T18:31:26.142Z,145.12
2019-02-28T18:34:20.562Z,145.65
2019-02-28T18:36:46.288Z,147.28
2019-02-28T18:39:13.753Z,144.85
2019-02-28T18:41:42.301Z,144.05
2019-02-28T18:44:10.254Z,142.93
2019-02-28T18:46:37.397Z,144.00
2019-02-28T18:49:05.909Z,144.32
2019-02-28T18:51:33.029Z,142.53
2019-02-28T18:54:00.175Z,144.90
2019-02-28T18:56:27.298Z,145.95
2019-02-28T18:58:54.411Z,144.60
2019-02-28T19:01:21.636Z,146.35
2019-02-28T19:03:48.763Z,148.80
2019-02-28T19:06:15.895Z,145.43
2019-02-28T19:08:43.333Z,145.95
2019-02-28T19:11:10.454Z,145.22
2019-02-28T19:13:37.651Z,145.80
2019-02-28T19:16:05.087Z,146.25
2019-02-28T19:18:32.188Z,144.28
2019-02-28T19:21:08.201Z,147.68
2019-02-28T19:23:35.413Z,146.02
2019-02-28T19:26:02.526Z,146.65
2019-02-28T19:28:29.746Z,146.93
2019-02-28T19:30:57.203Z,147.98
2019-02-28T19:33:24.553Z,144.80
2019-02-28T19:35:51.866Z,145.90
2019-02-28T19:38:19.080Z,146.87
2019-02-28T19:40:46.288Z,145.30
2019-02-28T19:43:13.543Z,147.05
2019-02-28T19:45:41.747Z,146.93
2019-02-28T19:48:09.011Z,145.12
2019-02-28T19:50:36.158Z,146.70
2019-02-28T19:53:03.680Z,145.07
2019-02-28T19:55:30.852Z,146.85
2019-02-28T19:57:57.982Z,145.25
2019-02-28T20:00:25.135Z,144.72
2019-02-28T20:02:52.238Z,144.72
2019-02-28T20:05:19.379Z,146.25
2019-02-28T20:07:46.566Z,145.87
2019-02-28T20:10:14.785Z,146.37
2019-02-28T20:12:42.028Z,146.93
2019-02-28T20:15:11.348Z,146.35
2019-02-28T20:17:38.484Z,146.62
2019-02-28T20:20:09.458Z,147.90
2019-02-28T20:22:36.648Z,145.85
2019-02-28T20:25:05.451Z,147.55
2019-02-28T20:27:33.058Z,147.32
2019-02-28T20:30:08.718Z,146.72
2019-02-28T20:32:36.401Z,149.23
2019-02-28T20:35:04.588Z,148.75
2019-02-28T20:37:33.644Z,149.27
2019-02-28T20:40:00.779Z,148.75
2019-02-28T20:42:27.917Z,148.47
2019-02-28T20:44:55.116Z,148.78
2019-02-28T20:47:22.266Z,148.02
2019-02-28T20:49:49.797Z,147.98
2019-02-28T20:52:18.306Z,148.50
2019-02-28T20:54:45.444Z,148.60
2019-02-28T20:57:12.953Z,147.87
2019-02-28T20:59:41.196Z,149.07
2019-02-28T21:02:08.415Z,148.00
2019-02-28T21:04:36.709Z,149.12
2019-02-28T21:07:03.929Z,149.68
2019-02-28T21:09:32.927Z,150.10
2019-02-28T21:12:00.022Z,148.13
2019-02-28T21:14:27.197Z,146.20
2019-02-28T21:16:54.282Z,148.13
2019-02-28T21:19:21.602Z,149.15
2019-02-28T21:21:48.869Z,149.07
2019-02-28T21:24:16.331Z,148.72
2019-02-28T21:26:43.564Z,149.65
2019-02-28T21:29:10.841Z,148.70
2019-02-28T21:31:38.050Z,148.82
2019-02-28T21:34:05.357Z,147.87
2019-02-28T21:36:33.123Z,149.42
2019-02-28T21:39:00.448Z,146.82
2019-02-28T21:41:27.694Z,147.68
2019-02-28T21:43:55.311Z,148.15
2019-02-28T21:46:22.821Z,146.95
2019-02-28T21:48:49.985Z,147.35
2019-02-28T21:51:17.541Z,147.78
2019-02-28T21:53:44.584Z,145.62
2019-02-28T21:56:11.716Z,148.07
2019-02-28T21:58:38.926Z,147.43
2019-02-28T22:01:06.321Z,146.35
2019-02-28T22:03:33.572Z,147.20
2019-02-28T22:06:00.765Z,146.90
2019-02-28T22:08:27.880Z,148.30
2019-02-28T22:10:55.075Z,146.68
2019-02-28T22:13:22.159Z,146.18
2019-02-28T22:15:49.394Z,145.30
2019-02-28T22:18:16.493Z,144.65
2019-02-28T22:20:43.635Z,144.60
2019-02-28T22:23:10.733Z,143.90
2019-02-28T22:25:37.839Z,143.82
2019-02-28T22:28:05.142Z,142.75
2019-02-28T22:31:02.072Z,143.93
2019-02-28T22:33:51.810Z,144.55
2019-02-28T22:36:22.702Z,146.72
2019-02-28T22:38:49.805Z,144.45
2019-02-28T22:41:16.924Z,146.05
2019-02-28T22:43:43.997Z,145.60
2019-02-28T22:46:11.109Z,147.10
2019-02-28T22:48:38.381Z,142.62
2019-02-28T22:51:05.514Z,142.07
2019-02-28T22:53:32.599Z,147.15
2019-02-28T22:55:59.734Z,145.87
2019-02-28T22:58:26.861Z,151.40
2019-02-28T23:01:03.145Z,142.05
2019-02-28T23:03:32.001Z,140.77
2019-02-28T23:05:59.710Z,140.22
2019-02-28T23:08:26.894Z,140.37
2019-02-28T23:10:54.001Z,139.65
2019-02-28T23:13:21.104Z,139.77
2019-02-28T23:15:48.248Z,140.95
2019-02-28T23:18:15.376Z,141.05
2019-02-28T23:20:42.614Z,141.20
2019-02-28T23:23:09.728Z,140.12
2019-02-28T23:25:36.839Z,140.12
2019-02-28T23:28:12.251Z,140.88
2019-02-28T23:31:08.773Z,141.53
2019-02-28T23:33:36.047Z,141.85
2019-02-28T23:36:04.084Z,139.35
2019-02-28T23:38:37.841Z,139.03
2019-02-28T23:41:05.221Z,141.50
2019-02-28T23:43:34.172Z,138.60
2019-02-28T23:46:02.905Z,139.75
2019-02-28T23:48:30.006Z,138.52
2019-02-28T23:50:57.233Z,139.65
2019-02-28T23:53:24.370Z,138.72
2019-02-28T23:55:51.512Z,140.05
2019-02-28T23:58:18.652Z,139.50
